createdAt,value
2022-08-01T00:00:50.582Z,4.37
2022-08-01T00:03:17.921Z,6.73
2022-08-01T00:05:46.440Z,5.33
2022-08-01T00:08:13.525Z,4.93
2022-08-01T00:10:40.930Z,4.80
2022-08-01T00:13:08.043Z,3.60
2022-08-01T00:15:37.722Z,8.83
2022-08-01T00:18:05.058Z,3.67
2022-08-01T00:20:32.253Z,3.70
2022-08-01T00:22:59.333Z,4.23
2022-08-01T00:25:34.236Z,3.93
2022-08-01T00:28:04.237Z,5.30
2022-08-01T00:30:32.346Z,8.60
2022-08-01T00:32:59.755Z,5.13
2022-08-01T00:35:26.956Z,4.57
2022-08-01T00:37:54.353Z,8.37
2022-08-01T00:40:21.966Z,8.63
2022-08-01T00:42:49.188Z,4.77
2022-08-01T00:45:16.572Z,5.53
2022-08-01T00:47:43.779Z,4.60
2022-08-01T00:50:11.860Z,6.40
2022-08-01T00:52:41.295Z,3.73
2022-08-01T00:55:13.090Z,7.80
2022-08-01T00:58:03.287Z,6.63
2022-08-01T01:00:30.652Z,5.73
2022-08-01T01:03:01.178Z,4.33
2022-08-01T01:05:28.371Z,4.07
2022-08-01T01:08:03.258Z,5.90
2022-08-01T01:10:44.067Z,10.87
2022-08-01T01:13:21.425Z,4.57
2022-08-01T01:15:55.189Z,6.33
2022-08-01T01:18:26.267Z,4.10
2022-08-01T01:21:02.995Z,8.17
2022-08-01T01:23:59.169Z,9.87
2022-08-01T01:27:08.736Z,7.37
2022-08-01T01:29:59.822Z,7.03
2022-08-01T01:32:36.323Z,6.80
2022-08-01T01:35:08.867Z,8.07
2022-08-01T01:37:39.514Z,11.23
2022-08-01T01:40:08.517Z,7.30
2022-08-01T01:42:37.180Z,10.27
2022-08-01T01:45:06.467Z,4.10
2022-08-01T01:47:34.645Z,4.07
2022-08-01T01:50:05.061Z,4.07
2022-08-01T01:52:33.423Z,2.50
2022-08-01T01:55:02.505Z,4.17
2022-08-01T01:57:32.079Z,4.57
2022-08-01T02:00:00.465Z,7.03
2022-08-01T02:02:29.200Z,4.23
2022-08-01T02:04:57.105Z,3.17
2022-08-01T02:07:27.357Z,3.97
2022-08-01T02:09:55.845Z,2.60
2022-08-01T02:12:23.827Z,6.90
2022-08-01T02:14:54.723Z,5.97
2022-08-01T02:17:23.324Z,6.83
2022-08-01T02:19:50.845Z,4.70
2022-08-01T02:22:26.923Z,5.93
2022-08-01T02:25:04.527Z,10.47
2022-08-01T02:27:41.475Z,5.00
2022-08-01T02:30:11.677Z,9.13
2022-08-01T02:32:51.155Z,6.03
2022-08-01T02:35:28.602Z,4.53
2022-08-01T02:37:58.670Z,5.67
2022-08-01T02:40:29.269Z,5.47
2022-08-01T02:42:59.235Z,4.70
2022-08-01T02:45:27.624Z,2.93
2022-08-01T02:48:00.212Z,4.53
2022-08-01T02:50:29.531Z,3.40
2022-08-01T02:52:59.060Z,4.97
2022-08-01T02:55:27.644Z,4.17
2022-08-01T02:57:56.829Z,11.93
2022-08-01T03:00:28.885Z,11.40
2022-08-01T03:02:58.091Z,12.20
2022-08-01T03:05:27.073Z,6.13
2022-08-01T03:07:56.618Z,6.43
2022-08-01T03:10:31.970Z,4.40
2022-08-01T03:13:01.397Z,15.93
2022-08-01T03:15:32.054Z,7.40
2022-08-01T03:18:02.072Z,5.00
2022-08-01T03:20:31.159Z,7.97
2022-08-01T03:23:00.745Z,5.87
2022-08-01T03:25:30.134Z,4.00
2022-08-01T03:28:02.555Z,6.77
2022-08-01T03:30:32.232Z,6.67
2022-08-01T03:32:59.508Z,12.00
2022-08-01T03:35:34.120Z,11.33
2022-08-01T03:38:18.973Z,11.13
2022-08-01T03:40:55.037Z,7.43
2022-08-01T03:43:41.214Z,6.17
2022-08-01T03:46:13.453Z,4.47
2022-08-01T03:48:46.379Z,4.67
2022-08-01T03:51:14.932Z,3.80
2022-08-01T03:53:45.633Z,3.73
2022-08-01T03:56:17.580Z,7.53
2022-08-01T03:58:50.029Z,6.83
2022-08-01T04:01:18.711Z,5.37
2022-08-01T04:03:46.810Z,8.43
2022-08-01T04:06:15.179Z,8.47
2022-08-01T04:08:42.919Z,10.73
2022-08-01T04:11:11.265Z,9.37
2022-08-01T04:13:40.463Z,6.93
2022-08-01T04:16:11.895Z,4.13
2022-08-01T04:18:38.994Z,7.10
2022-08-01T04:21:06.167Z,6.50
2022-08-01T04:23:40.330Z,12.37
2022-08-01T04:26:11.642Z,9.03
2022-08-01T04:28:40.918Z,17.00
2022-08-01T04:31:10.925Z,12.67
2022-08-01T04:33:41.002Z,15.03
2022-08-01T04:36:13.014Z,14.17
2022-08-01T04:38:44.141Z,8.37
2022-08-01T04:41:14.407Z,7.00
2022-08-01T04:43:44.349Z,15.70
2022-08-01T04:46:13.185Z,9.10
2022-08-01T04:48:41.777Z,6.53
2022-08-01T04:51:17.038Z,6.23
2022-08-01T04:53:49.197Z,11.70
2022-08-01T04:56:16.782Z,6.20
2022-08-01T04:58:45.433Z,17.07
2022-08-01T05:01:19.010Z,8.33
2022-08-01T05:03:46.775Z,7.80
2022-08-01T05:06:14.332Z,12.50
2022-08-01T05:08:42.454Z,7.10
2022-08-01T05:11:09.602Z,7.97
2022-08-01T05:13:37.084Z,13.87
2022-08-01T05:16:04.909Z,8.10
2022-08-01T05:18:32.399Z,10.70
2022-08-01T05:21:00.191Z,9.17
2022-08-01T05:23:42.110Z,8.77
2022-08-01T05:26:14.723Z,9.93
2022-08-01T05:28:42.724Z,9.03
2022-08-01T05:31:10.179Z,7.83
2022-08-01T05:33:37.848Z,6.90
2022-08-01T05:36:11.865Z,10.82
2022-08-01T05:38:40.796Z,6.95
2022-08-01T05:41:08.037Z,4.75
2022-08-01T05:43:35.342Z,12.77
2022-08-01T05:46:03.046Z,5.13
2022-08-01T05:48:30.293Z,4.88
2022-08-01T05:50:58.887Z,11.45
2022-08-01T05:53:26.773Z,8.90
2022-08-01T05:55:53.893Z,5.45
2022-08-01T05:58:21.094Z,5.90
2022-08-01T06:00:48.407Z,7.43
2022-08-01T06:03:15.574Z,5.88
2022-08-01T06:05:42.840Z,7.03
2022-08-01T06:08:12.270Z,10.32
2022-08-01T06:10:41.760Z,8.32
2022-08-01T06:13:09.013Z,6.65
2022-08-01T06:15:36.464Z,8.68
2022-08-01T06:18:05.266Z,8.13
2022-08-01T06:20:32.764Z,9.65
2022-08-01T06:23:01.118Z,4.80
2022-08-01T06:25:33.310Z,5.40
2022-08-01T06:28:00.942Z,5.05
2022-08-01T06:33:14.940Z,4.75
2022-08-01T06:35:42.722Z,4.63
2022-08-01T06:38:10.593Z,4.85
2022-08-01T06:40:39.805Z,8.93
2022-08-01T06:43:07.415Z,5.68
2022-08-01T06:45:34.641Z,4.18
2022-08-01T06:48:02.039Z,6.38
2022-08-01T06:50:29.799Z,6.15
2022-08-01T06:52:57.826Z,5.78
2022-08-01T06:55:25.130Z,5.45
2022-08-01T06:57:54.123Z,10.57
2022-08-01T07:00:24.915Z,6.55
2022-08-01T07:02:57.352Z,7.55
2022-08-01T07:05:28.214Z,5.38
2022-08-01T07:07:59.367Z,4.90
2022-08-01T07:10:29.725Z,9.30
2022-08-01T07:12:59.375Z,10.50
2022-08-01T07:15:29.099Z,8.75
2022-08-01T07:17:59.954Z,11.70
2022-08-01T07:20:27.481Z,10.57
2022-08-01T07:22:56.578Z,10.68
2022-08-01T07:25:25.600Z,10.10
2022-08-01T07:27:52.900Z,10.15
2022-08-01T07:30:20.706Z,6.10
2022-08-01T07:35:30.740Z,5.60
2022-08-01T07:37:59.421Z,6.00
2022-08-01T07:40:26.674Z,6.97
2022-08-01T07:42:53.935Z,7.10
2022-08-01T07:45:22.000Z,5.30
2022-08-01T07:47:50.651Z,6.00
2022-08-01T07:50:18.027Z,5.63
2022-08-01T07:52:45.579Z,5.90
2022-08-01T07:55:16.470Z,4.10
2022-08-01T07:57:44.104Z,12.20
2022-08-01T08:00:12.334Z,5.97
2022-08-01T08:07:28.977Z,5.07
2022-08-01T08:09:57.560Z,7.60
2022-08-01T08:12:28.349Z,10.30
2022-08-01T08:15:00.264Z,6.40
2022-08-01T08:17:35.869Z,7.80
2022-08-01T08:24:45.665Z,6.22
2022-08-01T08:27:15.225Z,6.70
2022-08-01T08:29:43.052Z,7.97
2022-08-01T08:32:11.122Z,7.85
2022-08-01T08:34:38.597Z,6.75
2022-08-01T08:37:06.394Z,11.38
2022-08-01T08:39:42.098Z,12.05
2022-08-01T08:42:13.481Z,13.15
2022-08-01T08:44:44.418Z,8.88
2022-08-01T08:47:19.031Z,11.23
2022-08-01T08:49:49.580Z,5.57
2022-08-01T08:52:20.675Z,8.25
2022-08-01T08:54:50.280Z,5.47
2022-08-01T08:57:21.686Z,7.68
2022-08-01T08:59:50.427Z,9.65
2022-08-01T09:02:18.507Z,4.35
2022-08-01T09:04:50.335Z,7.47
2022-08-01T09:07:19.124Z,3.22
2022-08-01T09:09:51.654Z,8.70
2022-08-01T09:12:23.967Z,8.95
2022-08-01T09:15:02.513Z,7.32
2022-08-01T09:17:41.150Z,6.32
2022-08-01T09:20:23.934Z,3.53
2022-08-01T09:22:51.586Z,6.45
2022-08-01T09:25:19.088Z,4.72
2022-08-01T09:27:46.657Z,6.13
2022-08-01T09:30:19.707Z,6.15
2022-08-01T09:37:37.158Z,3.53
2022-08-01T09:40:05.515Z,5.68
2022-08-01T09:42:36.057Z,6.40
2022-08-01T09:45:05.119Z,5.10
2022-08-01T09:47:39.823Z,4.47
2022-08-01T09:50:11.186Z,4.47
2022-08-01T09:52:41.050Z,4.53
2022-08-01T09:55:11.181Z,5.72
2022-08-01T09:57:39.990Z,6.60
2022-08-01T10:00:43.774Z,3.10
2022-08-01T10:03:29.850Z,3.08
2022-08-01T10:05:58.423Z,3.72
2022-08-01T10:08:28.500Z,3.92
2022-08-01T10:11:12.203Z,7.35
2022-08-01T10:13:40.767Z,2.97
2022-08-01T10:16:08.287Z,5.15
2022-08-01T10:18:41.391Z,3.58
2022-08-01T10:21:11.325Z,4.72
2022-08-01T10:28:18.118Z,2.55
2022-08-01T10:30:52.097Z,4.57
2022-08-01T10:33:50.953Z,3.17
2022-08-01T10:36:11.661Z,7.28
2022-08-01T10:38:40.034Z,6.30
2022-08-01T10:41:08.911Z,6.53
2022-08-01T10:43:36.987Z,4.57
2022-08-01T10:46:08.380Z,2.47
2022-08-01T10:48:48.162Z,6.78
2022-08-01T10:51:18.967Z,2.45
2022-08-01T10:53:54.833Z,4.63
2022-08-01T10:56:26.781Z,3.33
2022-08-01T10:59:06.433Z,4.40
2022-08-01T11:01:45.013Z,4.45
2022-08-01T11:04:17.787Z,2.38
2022-08-01T11:06:55.004Z,5.55
2022-08-01T11:09:36.428Z,4.65
2022-08-01T11:12:13.191Z,2.25
2022-08-01T11:15:00.494Z,5.30
2022-08-01T11:17:43.104Z,6.22
2022-08-01T11:20:16.254Z,6.97
2022-08-01T11:23:03.691Z,2.47
2022-08-01T11:26:05.070Z,3.83
2022-08-01T11:28:34.962Z,4.03
2022-08-01T11:31:11.550Z,3.63
2022-08-01T11:33:45.849Z,4.57
2022-08-01T11:36:14.491Z,2.83
2022-08-01T11:38:48.051Z,2.65
2022-08-01T11:41:23.565Z,3.67
2022-08-01T11:44:09.072Z,6.65
2022-08-01T11:47:09.959Z,4.28
2022-08-01T11:49:38.852Z,2.40
2022-08-01T11:52:16.070Z,6.50
2022-08-01T11:55:11.530Z,2.13
2022-08-01T11:57:43.331Z,3.72
2022-08-01T12:00:17.966Z,5.00
2022-08-01T12:03:01.388Z,4.50
2022-08-01T12:05:35.882Z,2.33
2022-08-01T12:08:03.731Z,2.47
2022-08-01T12:10:49.595Z,5.20
2022-08-01T12:13:19.476Z,5.53
2022-08-01T12:15:47.674Z,3.63
2022-08-01T12:18:15.251Z,10.60
2022-08-01T12:20:56.160Z,5.30
2022-08-01T12:23:25.475Z,4.43
2022-08-01T12:25:54.301Z,3.50
2022-08-01T12:28:21.911Z,4.10
2022-08-01T12:30:50.370Z,2.20
2022-08-01T12:33:22.208Z,4.28
2022-08-01T12:35:50.653Z,2.70
2022-08-01T12:38:20.475Z,6.28
2022-08-01T12:40:53.097Z,2.45
2022-08-01T12:43:28.581Z,2.15
2022-08-01T12:45:59.984Z,3.08
2022-08-01T12:48:28.081Z,3.97
2022-08-01T12:50:58.876Z,3.17
2022-08-01T12:53:27.219Z,3.90
2022-08-01T12:56:11.701Z,2.83
2022-08-01T12:58:39.706Z,5.97
2022-08-01T13:01:10.302Z,2.20
2022-08-01T13:03:38.291Z,4.63
2022-08-01T13:06:17.584Z,3.85
2022-08-01T13:08:46.712Z,2.50
2022-08-01T13:11:17.636Z,3.20
2022-08-01T13:13:49.607Z,2.22
2022-08-01T13:16:30.742Z,3.47
2022-08-01T13:19:06.965Z,4.53
2022-08-01T13:21:53.839Z,3.72
2022-08-01T13:24:28.126Z,3.10
2022-08-01T13:27:03.823Z,8.70
2022-08-01T13:29:38.398Z,3.42
2022-08-01T13:32:28.377Z,1.80
2022-08-01T13:35:06.254Z,5.28
2022-08-01T13:37:37.028Z,3.60
2022-08-01T13:40:08.598Z,2.90
2022-08-01T13:42:36.486Z,6.60
2022-08-01T13:45:11.809Z,2.35
2022-08-01T13:48:03.766Z,9.07
2022-08-01T13:50:31.752Z,2.45
2022-08-01T13:52:59.189Z,2.97
2022-08-01T13:55:32.417Z,3.40
2022-08-01T13:58:02.294Z,3.17
2022-08-01T14:00:29.680Z,4.95
2022-08-01T14:02:57.090Z,4.05
2022-08-01T14:05:26.914Z,3.75
2022-08-01T14:07:56.322Z,5.07
2022-08-01T14:10:25.540Z,3.47
2022-08-01T14:12:53.027Z,5.53
2022-08-01T14:15:38.296Z,2.53
2022-08-01T14:18:09.526Z,1.73
2022-08-01T14:20:38.644Z,3.20
2022-08-01T14:23:08.567Z,6.90
2022-08-01T14:26:03.884Z,6.80
2022-08-01T14:28:29.692Z,2.83
2022-08-01T14:30:59.353Z,2.28
2022-08-01T14:33:27.499Z,2.17
2022-08-01T14:36:06.234Z,1.95
2022-08-01T14:38:42.511Z,3.90
2022-08-01T14:41:15.089Z,5.38
2022-08-01T14:43:42.368Z,5.93
2022-08-01T14:46:11.063Z,4.10
2022-08-01T14:48:38.479Z,5.45
2022-08-01T14:51:08.388Z,5.05
2022-08-01T14:53:37.573Z,2.70
2022-08-01T14:56:05.203Z,5.18
2022-08-01T14:58:32.612Z,4.95
2022-08-01T15:01:00.146Z,5.35
2022-08-01T15:03:27.616Z,2.78
2022-08-01T15:05:54.851Z,3.53
2022-08-01T15:08:22.542Z,4.05
2022-08-01T15:10:50.161Z,6.18
2022-08-01T15:13:17.548Z,4.10
2022-08-01T15:15:44.943Z,3.58
2022-08-01T15:18:12.978Z,4.65
2022-08-01T15:20:40.438Z,4.43
2022-08-01T15:23:07.928Z,2.75
2022-08-01T15:25:41.798Z,2.92
2022-08-01T15:28:13.072Z,4.53
2022-08-01T15:30:41.124Z,2.67
2022-08-01T15:33:09.119Z,3.70
2022-08-01T15:35:37.871Z,3.88
2022-08-01T15:38:05.351Z,1.75
2022-08-01T15:40:35.632Z,6.22
2022-08-01T15:43:03.959Z,12.32
2022-08-01T15:45:46.879Z,6.57
2022-08-01T15:48:17.751Z,6.78
2022-08-01T15:50:49.578Z,2.38
2022-08-01T15:53:21.365Z,6.10
2022-08-01T15:58:44.742Z,5.03
2022-08-01T16:01:12.354Z,2.50
2022-08-01T16:03:39.535Z,5.75
2022-08-01T16:06:08.113Z,2.22
2022-08-01T16:08:35.684Z,5.15
2022-08-01T16:11:03.585Z,7.85
2022-08-01T16:13:33.805Z,2.88
2022-08-01T16:16:03.785Z,2.83
2022-08-01T16:18:35.854Z,2.88
2022-08-01T16:21:04.759Z,3.17
2022-08-01T16:23:32.618Z,4.85
2022-08-01T16:25:59.958Z,2.75
2022-08-01T16:28:36.227Z,5.45
2022-08-01T16:31:12.785Z,4.20
2022-08-01T16:33:57.120Z,4.80
2022-08-01T16:36:30.062Z,2.83
2022-08-01T16:38:57.908Z,3.63
2022-08-01T16:41:25.531Z,6.93
2022-08-01T16:43:54.625Z,4.15
2022-08-01T16:46:27.608Z,5.75
2022-08-01T16:49:07.705Z,5.95
2022-08-01T16:51:42.069Z,3.10
2022-08-01T16:54:25.302Z,3.40
2022-08-01T16:57:08.715Z,4.50
2022-08-01T16:59:41.355Z,6.15
2022-08-01T17:02:11.403Z,4.03
2022-08-01T17:04:39.727Z,3.78
2022-08-01T17:07:08.151Z,4.72
2022-08-01T17:09:43.416Z,6.10
2022-08-01T17:12:14.687Z,4.15
2022-08-01T17:14:56.661Z,7.13
2022-08-01T17:17:25.758Z,4.65
2022-08-01T17:19:57.614Z,6.03
2022-08-01T17:22:26.614Z,3.42
2022-08-01T17:24:56.573Z,3.22
2022-08-01T17:27:26.527Z,5.28
2022-08-01T17:29:54.035Z,10.45
2022-08-01T17:32:25.173Z,12.25
2022-08-01T17:34:57.893Z,9.93
2022-08-01T17:37:27.032Z,7.22
2022-08-01T17:39:56.127Z,12.18
2022-08-01T17:42:25.876Z,9.82
2022-08-01T17:44:54.210Z,5.40
2022-08-01T17:47:49.382Z,10.25
2022-08-01T17:50:19.723Z,8.90
2022-08-01T17:52:49.693Z,12.45
2022-08-01T17:55:56.055Z,11.48
2022-08-01T17:58:06.359Z,9.13
2022-08-01T18:00:35.529Z,8.90
2022-08-01T18:03:03.403Z,7.00
2022-08-01T18:05:37.601Z,16.55
2022-08-01T18:08:07.718Z,11.10
2022-08-01T18:10:35.935Z,6.65
2022-08-01T18:13:09.651Z,10.38
2022-08-01T18:15:40.448Z,12.13
2022-08-01T18:18:08.023Z,13.75
2022-08-01T18:20:36.888Z,17.55
2022-08-01T18:23:10.228Z,13.63
2022-08-01T18:25:38.985Z,10.93
2022-08-01T18:28:29.247Z,12.98
2022-08-01T18:30:56.537Z,12.20
2022-08-01T18:33:24.959Z,8.90
2022-08-01T18:35:53.883Z,7.18
2022-08-01T18:38:26.830Z,8.70
2022-08-01T18:40:55.102Z,10.38
2022-08-01T18:43:31.740Z,6.75
2022-08-01T18:46:01.406Z,8.15
2022-08-01T18:48:29.630Z,6.07
2022-08-01T18:50:57.722Z,8.70
2022-08-01T18:53:25.399Z,6.75
2022-08-01T18:55:56.624Z,5.03
2022-08-01T18:58:25.348Z,8.35
2022-08-01T19:00:53.211Z,10.85
2022-08-01T19:03:21.620Z,7.65
2022-08-01T19:05:49.636Z,6.40
2022-08-01T19:08:19.340Z,7.57
2022-08-01T19:10:47.046Z,7.20
2022-08-01T19:13:17.183Z,8.27
2022-08-01T19:15:49.647Z,7.55
2022-08-01T19:18:18.520Z,8.65
2022-08-01T19:20:46.165Z,9.07
2022-08-01T19:23:45.306Z,7.10
2022-08-01T19:26:30.975Z,5.53
2022-08-01T19:29:10.926Z,8.43
2022-08-01T19:31:49.237Z,7.13
2022-08-01T19:34:20.422Z,11.10
2022-08-01T19:37:00.223Z,10.35
2022-08-01T19:39:28.119Z,8.07
2022-08-01T19:42:22.410Z,7.45
2022-08-01T19:44:55.724Z,9.82
2022-08-01T19:47:50.948Z,9.25
2022-08-01T19:50:38.586Z,13.25
2022-08-01T19:53:13.200Z,12.35
2022-08-01T19:58:44.815Z,14.02
2022-08-01T20:01:19.650Z,13.82
2022-08-01T20:03:51.930Z,10.63
2022-08-01T20:06:24.528Z,11.80
2022-08-01T20:08:55.483Z,12.38
2022-08-01T20:11:24.178Z,11.57
2022-08-01T20:13:57.277Z,11.98
2022-08-01T20:16:28.789Z,11.32
2022-08-01T20:18:57.322Z,9.27
2022-08-01T20:21:28.433Z,13.85
2022-08-01T20:24:02.492Z,11.98
2022-08-01T20:26:32.342Z,12.40
2022-08-01T20:29:04.182Z,14.55
2022-08-01T20:32:17.943Z,14.10
2022-08-01T20:34:57.428Z,12.85
2022-08-01T20:38:05.948Z,11.60
2022-08-01T20:41:37.920Z,13.02
2022-08-01T20:44:08.455Z,12.57
2022-08-01T20:47:02.838Z,15.55
2022-08-01T20:49:35.533Z,13.80
2022-08-01T20:52:11.186Z,11.13
2022-08-01T20:54:44.289Z,14.85
2022-08-01T20:57:17.519Z,13.65
2022-08-01T20:59:56.724Z,11.30
2022-08-01T21:02:58.553Z,14.07
2022-08-01T21:05:58.733Z,16.52
2022-08-01T21:08:50.520Z,20.85
2022-08-01T21:11:25.820Z,18.83
2022-08-01T21:13:54.980Z,16.08
2022-08-01T21:16:30.617Z,17.20
2022-08-01T21:19:20.729Z,14.68
2022-08-01T21:22:12.506Z,15.05
2022-08-01T21:25:01.341Z,17.92
2022-08-01T21:27:35.333Z,17.08
2022-08-01T21:30:11.341Z,13.68
2022-08-01T21:32:44.877Z,13.55
2022-08-01T21:35:28.858Z,13.60
2022-08-01T21:38:01.357Z,12.95
2022-08-01T21:40:35.384Z,14.07
2022-08-01T21:43:04.773Z,14.52
2022-08-01T21:45:39.758Z,14.85
2022-08-01T21:48:33.663Z,11.75
2022-08-01T21:51:41.425Z,17.23
2022-08-01T21:54:28.680Z,16.17
2022-08-01T21:57:24.595Z,15.60
2022-08-01T22:00:25.112Z,11.13
2022-08-01T22:03:21.665Z,14.73
2022-08-01T22:05:51.949Z,12.23
2022-08-01T22:08:30.582Z,15.15
2022-08-01T22:11:04.127Z,14.07
2022-08-01T22:13:31.708Z,17.38
2022-08-01T22:15:59.528Z,13.27
2022-08-01T22:18:28.864Z,12.05
2022-08-01T22:20:56.729Z,11.98
2022-08-01T22:23:25.266Z,14.18
2022-08-01T22:25:55.285Z,12.88
2022-08-01T22:28:27.214Z,12.70
2022-08-01T22:30:55.189Z,12.23
2022-08-01T22:33:24.105Z,12.85
2022-08-01T22:35:53.271Z,12.45
2022-08-01T22:38:24.558Z,11.07
2022-08-01T22:41:16.343Z,9.30
2022-08-01T22:43:52.822Z,7.97
2022-08-01T22:46:41.693Z,9.00
2022-08-01T22:49:55.385Z,9.27
2022-08-01T22:52:31.982Z,12.07
2022-08-01T22:55:08.193Z,9.00
2022-08-01T22:57:55.907Z,15.32
2022-08-01T23:00:31.762Z,14.05
2022-08-01T23:03:07.835Z,12.07
2022-08-01T23:05:54.231Z,12.82
2022-08-01T23:08:22.327Z,14.60
2022-08-01T23:10:50.391Z,13.02
2022-08-01T23:13:20.003Z,8.10
2022-08-01T23:15:52.251Z,6.15
2022-08-01T23:18:22.592Z,6.03
2022-08-01T23:20:53.004Z,9.15
2022-08-01T23:23:31.380Z,9.07
2022-08-01T23:26:01.597Z,5.93
2022-08-01T23:28:30.345Z,8.70
2022-08-01T23:31:00.203Z,8.05
2022-08-01T23:33:27.532Z,10.38
2022-08-01T23:35:55.629Z,7.53
2022-08-01T23:38:23.040Z,11.30
2022-08-01T23:40:51.317Z,4.88
2022-08-01T23:43:19.512Z,6.78
2022-08-01T23:46:04.051Z,8.40
2022-08-01T23:48:35.258Z,7.40
2022-08-01T23:51:04.449Z,5.50
2022-08-01T23:53:36.027Z,4.80
2022-08-01T23:56:06.451Z,10.32
2022-08-01T23:58:34.411Z,7.28
